9VA8 weather

Innsbrook Pavilion Heliport
Richmond, Virginia, United States

Public forecast

Using degrees Fahrenheit for public forecast. Weather courtesy of forecast.io.

METAR (pilot weather report)

Closest report is Hanover County Municipal Airport, 7.9 nm (14.7 km) ENE. Retrieved 2019/03/20 18:54 UTC (51 minutes ago):

KOFP 201854Z AUTO 09006KT 10SM BKN075 14/M05 A3026 RMK AO2 SLP248 T01441050

TAF (pilot weather forecast)

Closest forecast is Richmond International Airport, 15.3 nm (28.3 km) SE. Retrieved 2019/03/20 18:42 UTC (1 hour ago):

TAF KRIC 201739Z 2018/2118 09008KT P6SM BKN060 FM210000 08005KT 6SM -SHRA OVC025 FM210300 06006KT 4SM RA OVC007 FM210900 07005KT 2SM RA OVC004 FM211300 09007KT 5SM -SHRA OVC007 FM211600 15005KT P6SM OVC015